Skip Navigation LinksHome page > Weather > Current weather Skip Navigation Links

Current Weather

Indira Gandhi Intl Apt, New Delhi, India

For information only: do not use for flight planning or navigation.
Latest weather
Observation time Monday, December 18, 2017 4:30 PM IST
Local time Monday, December 18, 2017 6:06 PM IST
Flight conditions Instrument Meteorological Conditions
Winds
Wind direction West (270°)
Wind speed 12 mph
Visibility 2.5 mi.
Present weather haze
Sky condition
Ceiling unlimited
Temperature 73°F
Dewpoint 43°F
Altimeter 30.06 in.Hg
Derived measurements
Relative humidity 33%
Density altitude 1673 ft.
Remarks
No significant changes expected in the next two hours.
METAR VIDP 181100Z 27010KT 4000 HZ NSC 23/06 Q1018 NOSIG

Settings

Location code

InnerDrive.Weather 4.0.6144.1 Release CLR 4.0.30319.36366
Copyright ©2015 Inner Drive Technology. All rights reserved. Portions Copyright ©1986-2015 David Braverman.

Find weather

Site navigation


Skip Navigation Links

Place info

Page info

PayPal - The safer, easier way to pay online!

Return home.

Copyright ©2017 Inner Drive Technology. Purveyors of fine, hand-crafted computer software. Page printed 2017-12-18T12:36:27 UTC.